createdAt,value
2023-03-16T00:00:46.986Z,4.68
2023-03-16T00:03:19.438Z,6.25
2023-03-16T00:05:50.668Z,6.10
2023-03-16T00:08:19.186Z,6.72
2023-03-16T00:10:46.965Z,7.03
2023-03-16T00:13:15.341Z,5.78
2023-03-16T00:15:42.653Z,8.93
2023-03-16T00:18:09.352Z,5.72
2023-03-16T00:20:36.163Z,7.85
2023-03-16T00:23:02.743Z,6.18
2023-03-16T00:25:29.751Z,9.85
2023-03-16T00:27:56.407Z,8.50
2023-03-16T00:30:23.061Z,5.53
2023-03-16T00:32:49.830Z,8.00
2023-03-16T00:35:16.609Z,6.32
2023-03-16T00:37:44.144Z,15.43
2023-03-16T00:40:12.638Z,9.70
2023-03-16T00:42:39.605Z,11.48
2023-03-16T00:45:06.983Z,8.20
2023-03-16T00:47:34.759Z,14.48
2023-03-16T00:50:02.338Z,9.40
2023-03-16T00:52:29.566Z,9.80
2023-03-16T00:54:56.720Z,10.90
2023-03-16T00:57:25.420Z,15.68
2023-03-16T00:59:52.554Z,10.32
2023-03-16T01:02:23.290Z,10.73
2023-03-16T01:04:51.695Z,9.30
2023-03-16T01:07:18.696Z,10.82
2023-03-16T01:09:45.322Z,14.65
2023-03-16T01:12:17.890Z,7.97
2023-03-16T01:14:47.757Z,15.70
2023-03-16T01:17:16.107Z,10.35
2023-03-16T01:19:43.331Z,13.88
2023-03-16T01:22:11.720Z,12.85
2023-03-16T01:24:39.400Z,13.95
2023-03-16T01:27:06.809Z,12.32
2023-03-16T01:29:33.795Z,9.73
2023-03-16T01:32:01.526Z,7.35
2023-03-16T01:34:28.567Z,7.13
2023-03-16T01:36:55.810Z,11.30
2023-03-16T01:39:23.272Z,7.78
2023-03-16T01:41:49.940Z,9.60
2023-03-16T01:44:24.228Z,7.18
2023-03-16T01:46:51.102Z,9.88
2023-03-16T01:49:48.058Z,7.47
2023-03-16T01:52:33.411Z,5.15
2023-03-16T01:55:13.714Z,9.85
2023-03-16T01:57:44.500Z,7.78
2023-03-16T02:00:23.643Z,6.60
2023-03-16T02:02:55.493Z,4.63
2023-03-16T02:05:38.724Z,7.28
2023-03-16T02:08:06.657Z,4.97
2023-03-16T02:10:34.787Z,3.80
2023-03-16T02:13:01.899Z,5.70
2023-03-16T02:15:28.631Z,6.18
2023-03-16T02:17:57.775Z,6.28
2023-03-16T02:20:24.366Z,5.43
2023-03-16T02:22:54.223Z,5.32
2023-03-16T02:25:29.200Z,5.20
2023-03-16T02:28:10.752Z,4.35
2023-03-16T02:30:37.514Z,8.88
2023-03-16T02:33:07.442Z,3.90
2023-03-16T02:35:34.388Z,4.65
2023-03-16T02:38:01.783Z,4.18
2023-03-16T02:40:31.066Z,8.27
2023-03-16T02:43:05.198Z,6.70
2023-03-16T02:45:44.013Z,8.45
2023-03-16T02:48:16.587Z,6.80
2023-03-16T02:50:49.600Z,4.82
2023-03-16T02:53:16.849Z,9.13
2023-03-16T02:55:44.874Z,9.75
2023-03-16T02:58:12.052Z,8.25
2023-03-16T03:00:38.760Z,10.55
2023-03-16T03:03:08.357Z,13.77
2023-03-16T03:08:02.683Z,8.75
2023-03-16T03:10:29.668Z,13.10
2023-03-16T03:12:57.480Z,9.27
2023-03-16T03:15:24.666Z,8.25
2023-03-16T03:17:51.779Z,9.07
2023-03-16T03:20:19.768Z,15.23
2023-03-16T03:22:48.529Z,11.75
2023-03-16T03:25:18.567Z,11.17
2023-03-16T03:27:46.324Z,12.90
2023-03-16T03:30:17.768Z,11.13
2023-03-16T03:32:44.826Z,14.32
2023-03-16T03:35:14.244Z,14.52
2023-03-16T03:37:42.821Z,17.30
2023-03-16T03:40:12.218Z,14.38
2023-03-16T03:42:39.757Z,14.35
2023-03-16T03:45:07.840Z,19.05
2023-03-16T03:47:34.483Z,14.32
2023-03-16T03:50:01.113Z,14.38
2023-03-16T03:52:28.907Z,13.52
2023-03-16T03:54:55.602Z,14.45
2023-03-16T03:57:22.270Z,15.77
2023-03-16T03:59:48.889Z,13.80
2023-03-16T04:02:15.808Z,20.98
2023-03-16T04:04:44.242Z,18.77
2023-03-16T04:07:11.323Z,14.35
2023-03-16T04:09:38.332Z,20.90
2023-03-16T04:12:06.221Z,20.02
2023-03-16T04:14:33.556Z,21.10
2023-03-16T04:17:00.399Z,26.00
2023-03-16T04:19:27.083Z,24.67
2023-03-16T04:21:53.900Z,21.75
2023-03-16T04:24:22.230Z,19.20
2023-03-16T04:26:48.931Z,18.75
2023-03-16T04:29:18.106Z,20.58
2023-03-16T04:31:45.633Z,17.52
2023-03-16T04:34:12.709Z,16.00
2023-03-16T04:36:39.646Z,16.70
2023-03-16T04:39:06.795Z,19.27
2023-03-16T04:41:33.421Z,18.63
2023-03-16T04:44:00.073Z,16.70
2023-03-16T04:46:27.318Z,19.65
2023-03-16T04:48:54.303Z,17.70
2023-03-16T04:51:21.538Z,19.30
2023-03-16T04:53:48.435Z,17.58
2023-03-16T04:56:19.699Z,16.80
2023-03-16T04:58:48.062Z,18.95
2023-03-16T05:01:14.957Z,17.52
2023-03-16T05:03:42.874Z,19.05
2023-03-16T05:06:11.876Z,15.18
2023-03-16T05:08:38.627Z,16.80
2023-03-16T05:11:05.626Z,12.60
2023-03-16T05:13:32.855Z,17.60
2023-03-16T05:16:00.137Z,13.90
2023-03-16T05:18:27.135Z,15.20
2023-03-16T05:20:55.906Z,9.90
2023-03-16T05:23:23.251Z,12.00
2023-03-16T05:25:50.847Z,10.18
2023-03-16T05:28:17.964Z,9.18
2023-03-16T05:30:47.941Z,9.13
2023-03-16T05:33:14.597Z,13.23
2023-03-16T05:35:41.372Z,11.35
2023-03-16T05:38:09.143Z,9.02
2023-03-16T05:40:37.173Z,9.90
2023-03-16T05:43:04.386Z,13.57
2023-03-16T05:45:31.022Z,13.02
2023-03-16T05:47:57.658Z,12.25
2023-03-16T05:50:24.667Z,8.27
2023-03-16T05:52:51.296Z,13.52
2023-03-16T05:55:18.579Z,19.05
2023-03-16T05:57:45.284Z,10.95
2023-03-16T06:00:15.650Z,13.18
2023-03-16T06:02:51.549Z,12.63
2023-03-16T06:05:19.928Z,14.57
2023-03-16T06:07:46.540Z,16.23
2023-03-16T06:10:13.709Z,10.88
2023-03-16T06:12:41.181Z,16.33
2023-03-16T06:15:08.983Z,14.93
2023-03-16T06:17:36.811Z,17.27
2023-03-16T06:20:09.700Z,20.73
2023-03-16T06:22:41.117Z,21.35
2023-03-16T06:25:09.812Z,11.77
2023-03-16T06:27:37.088Z,14.57
2023-03-16T06:30:06.340Z,15.50
2023-03-16T06:32:33.039Z,11.75
2023-03-16T06:35:02.026Z,11.38
2023-03-16T06:37:28.998Z,14.85
2023-03-16T06:39:55.972Z,12.48
2023-03-16T06:42:23.771Z,17.50
2023-03-16T06:44:50.357Z,12.98
2023-03-16T06:47:17.020Z,11.60
2023-03-16T06:49:43.652Z,16.92
2023-03-16T06:52:10.712Z,15.55
2023-03-16T06:54:37.615Z,13.68
2023-03-16T06:57:04.381Z,18.20
2023-03-16T06:59:31.258Z,15.25
2023-03-16T07:01:57.903Z,14.75
2023-03-16T07:04:24.626Z,11.10
2023-03-16T07:06:51.585Z,12.85
2023-03-16T07:09:18.311Z,12.82
2023-03-16T07:11:44.910Z,14.13
2023-03-16T07:14:11.881Z,14.40
2023-03-16T07:16:38.565Z,12.27
2023-03-16T07:19:05.245Z,13.98
2023-03-16T07:21:39.088Z,15.90
2023-03-16T07:24:06.677Z,13.75
2023-03-16T07:26:33.298Z,16.33
2023-03-16T07:29:00.005Z,9.68
2023-03-16T07:31:26.984Z,13.57
2023-03-16T07:33:53.529Z,10.90
2023-03-16T07:36:20.618Z,14.88
2023-03-16T07:38:47.377Z,12.88
2023-03-16T07:41:14.158Z,11.23
2023-03-16T07:43:40.856Z,12.75
2023-03-16T07:46:07.488Z,12.05
2023-03-16T07:48:34.130Z,14.05
2023-03-16T07:51:00.862Z,14.13
2023-03-16T07:53:27.503Z,13.15
2023-03-16T07:55:54.103Z,16.63
2023-03-16T07:58:21.609Z,12.85
2023-03-16T08:00:48.187Z,11.77
2023-03-16T08:03:15.013Z,18.33
2023-03-16T08:05:41.681Z,18.35
2023-03-16T08:08:09.784Z,24.50
2023-03-16T08:10:36.543Z,16.88
2023-03-16T08:13:04.894Z,12.60
2023-03-16T08:15:33.982Z,13.93
2023-03-16T08:18:02.350Z,13.07
2023-03-16T08:20:30.019Z,15.70
2023-03-16T08:22:57.095Z,16.17
2023-03-16T08:25:23.749Z,21.33
2023-03-16T08:27:50.396Z,15.43
2023-03-16T08:30:17.557Z,13.20
2023-03-16T08:32:44.457Z,13.65
2023-03-16T08:35:13.904Z,14.68
2023-03-16T08:37:41.623Z,18.75
2023-03-16T08:40:15.851Z,21.15
2023-03-16T08:42:43.098Z,16.13
2023-03-16T08:45:13.809Z,15.70
2023-03-16T08:47:41.317Z,16.48
2023-03-16T08:50:09.340Z,16.30
2023-03-16T08:52:36.969Z,14.48
2023-03-16T08:55:10.252Z,13.15
2023-03-16T08:57:39.248Z,15.73
2023-03-16T09:00:12.968Z,14.73
2023-03-16T09:02:41.727Z,13.50
2023-03-16T09:05:11.039Z,14.73
2023-03-16T09:07:39.311Z,15.45
2023-03-16T09:10:07.327Z,14.57
2023-03-16T09:12:37.932Z,13.75
2023-03-16T09:15:05.760Z,13.43
2023-03-16T09:17:33.412Z,10.75
2023-03-16T09:20:11.565Z,12.07
2023-03-16T09:22:48.073Z,13.70
2023-03-16T09:25:15.561Z,14.45
2023-03-16T09:27:42.636Z,14.63
2023-03-16T09:30:10.384Z,13.07
2023-03-16T09:32:37.380Z,12.60
2023-03-16T09:35:06.238Z,14.30
2023-03-16T09:37:44.748Z,13.50
2023-03-16T09:40:27.738Z,12.05
2023-03-16T09:43:22.709Z,18.98
2023-03-16T09:46:02.936Z,14.88
2023-03-16T09:48:34.145Z,14.65
2023-03-16T09:51:04.791Z,16.08
2023-03-16T09:53:38.076Z,12.85
2023-03-16T09:56:10.045Z,12.82
2023-03-16T09:58:37.069Z,13.75
2023-03-16T10:01:22.424Z,14.30
2023-03-16T10:04:17.156Z,12.57
2023-03-16T10:07:02.758Z,12.45
2023-03-16T10:09:39.689Z,11.52
2023-03-16T10:12:08.613Z,13.93
2023-03-16T10:14:41.012Z,18.38
2023-03-16T10:17:19.655Z,13.98
2023-03-16T10:19:54.316Z,16.55
2023-03-16T10:22:26.516Z,13.73
2023-03-16T10:25:07.602Z,10.10
2023-03-16T10:27:39.571Z,11.43
2023-03-16T10:30:24.850Z,13.32
2023-03-16T10:32:52.157Z,10.60
2023-03-16T10:35:48.918Z,14.18
2023-03-16T10:38:38.744Z,14.48
2023-03-16T10:41:17.932Z,18.92
2023-03-16T10:43:45.785Z,17.25
2023-03-16T10:46:14.893Z,11.45
2023-03-16T10:48:42.519Z,12.52
2023-03-16T10:51:15.052Z,10.63
2023-03-16T10:53:44.486Z,13.73
2023-03-16T10:56:20.002Z,9.48
2023-03-16T10:58:46.853Z,10.90
2023-03-16T11:01:20.738Z,12.25
2023-03-16T11:03:55.167Z,11.65
2023-03-16T11:06:30.530Z,10.35
2023-03-16T11:09:13.944Z,9.52
2023-03-16T11:11:46.342Z,10.35
2023-03-16T11:14:15.613Z,13.23
2023-03-16T11:17:05.929Z,12.20
2023-03-16T11:19:54.340Z,11.00
2023-03-16T11:22:25.344Z,8.48
2023-03-16T11:25:00.859Z,9.30
2023-03-16T11:27:42.042Z,9.43
2023-03-16T11:30:24.527Z,10.77
2023-03-16T11:32:53.929Z,7.57
2023-03-16T11:35:57.919Z,9.57
2023-03-16T11:38:48.990Z,7.88
2023-03-16T11:41:34.778Z,7.30
2023-03-16T11:44:27.696Z,11.55
2023-03-16T11:47:23.517Z,8.00
2023-03-16T11:50:15.664Z,8.90
2023-03-16T11:53:00.225Z,8.50
2023-03-16T11:55:51.919Z,7.90
2023-03-16T11:58:38.210Z,8.23
2023-03-16T12:01:23.307Z,8.40
2023-03-16T12:03:57.079Z,7.30
2023-03-16T12:06:50.814Z,10.70
2023-03-16T12:09:44.416Z,10.30
2023-03-16T12:12:13.771Z,7.25
2023-03-16T12:15:08.082Z,8.60
2023-03-16T12:17:37.731Z,7.03
2023-03-16T12:22:46.023Z,8.18
2023-03-16T12:25:23.910Z,10.27
2023-03-16T12:27:54.443Z,9.50
2023-03-16T12:31:04.099Z,10.52
2023-03-16T12:36:36.861Z,8.70
2023-03-16T12:39:14.151Z,8.13
2023-03-16T12:42:04.618Z,11.13
2023-03-16T12:44:56.616Z,11.02
2023-03-16T12:47:37.980Z,7.90
2023-03-16T12:50:08.104Z,8.98
2023-03-16T12:52:45.543Z,8.00
2023-03-16T12:55:21.117Z,7.72
2023-03-16T12:57:51.484Z,7.53
2023-03-16T13:00:19.520Z,7.13
2023-03-16T13:02:53.635Z,7.47
2023-03-16T13:05:31.791Z,9.38
2023-03-16T13:08:08.968Z,6.93
2023-03-16T13:10:37.435Z,8.23
2023-03-16T13:13:25.563Z,7.47
2023-03-16T13:16:10.082Z,7.20
2023-03-16T13:18:44.974Z,7.38
2023-03-16T13:21:34.773Z,8.07
2023-03-16T13:24:13.979Z,6.97
2023-03-16T13:26:49.893Z,9.52
2023-03-16T13:29:16.514Z,8.70
2023-03-16T13:31:43.450Z,5.95
2023-03-16T13:34:15.281Z,12.48
2023-03-16T13:36:45.291Z,7.25
2023-03-16T13:39:30.258Z,8.05
2023-03-16T13:42:04.832Z,9.30
2023-03-16T13:44:32.835Z,10.48
2023-03-16T13:47:07.322Z,8.88
2023-03-16T13:49:42.631Z,7.68
2023-03-16T13:52:19.616Z,8.07
2023-03-16T13:54:46.673Z,6.88
2023-03-16T13:57:15.206Z,7.85
2023-03-16T13:59:43.583Z,8.02
2023-03-16T14:02:20.759Z,9.93
2023-03-16T14:04:47.949Z,10.55
2023-03-16T14:07:20.050Z,9.38
2023-03-16T14:09:46.950Z,7.00
2023-03-16T14:12:18.993Z,6.35
2023-03-16T14:14:54.649Z,8.45
2023-03-16T14:17:23.301Z,7.43
2023-03-16T14:19:58.584Z,11.57
2023-03-16T14:22:37.728Z,7.55
2023-03-16T14:25:06.100Z,8.57
2023-03-16T14:27:43.928Z,10.18
2023-03-16T14:30:27.857Z,10.90
2023-03-16T14:33:04.370Z,8.60
2023-03-16T14:35:32.424Z,10.32
2023-03-16T14:38:32.683Z,10.40
2023-03-16T14:41:11.947Z,11.50
2023-03-16T14:43:59.532Z,10.82
2023-03-16T14:46:32.919Z,13.32
2023-03-16T14:49:02.064Z,13.00
2023-03-16T14:51:29.866Z,11.02
2023-03-16T14:53:56.492Z,8.75
2023-03-16T14:56:23.299Z,15.50
2023-03-16T14:58:49.948Z,10.63
2023-03-16T15:01:20.391Z,13.60
2023-03-16T15:03:47.437Z,9.13
2023-03-16T15:06:15.217Z,12.95
2023-03-16T15:08:45.074Z,18.33
2023-03-16T15:11:12.618Z,11.02
2023-03-16T15:13:42.163Z,9.60
2023-03-16T15:16:14.004Z,9.68
2023-03-16T15:18:41.759Z,13.15
2023-03-16T15:21:14.292Z,10.40
2023-03-16T15:23:42.969Z,11.23
2023-03-16T15:26:11.996Z,11.27
2023-03-16T15:28:38.709Z,10.18
2023-03-16T15:31:06.262Z,8.32
2023-03-16T15:33:33.588Z,7.93
2023-03-16T15:36:02.373Z,12.25
2023-03-16T15:38:32.190Z,12.07
2023-03-16T15:43:28.865Z,9.48
2023-03-16T15:45:57.374Z,10.75
2023-03-16T15:48:25.272Z,8.82
2023-03-16T15:51:06.495Z,7.35
2023-03-16T15:53:49.836Z,8.38
2023-03-16T15:56:21.960Z,12.27
2023-03-16T15:58:49.657Z,6.68
2023-03-16T16:01:27.472Z,8.30
2023-03-16T16:03:55.998Z,8.07
2023-03-16T16:06:23.983Z,5.97
2023-03-16T16:08:50.647Z,7.63
2023-03-16T16:11:28.130Z,8.55
2023-03-16T16:13:57.035Z,8.77
2023-03-16T16:16:25.972Z,6.70
2023-03-16T16:18:52.644Z,9.48
2023-03-16T16:21:24.985Z,9.75
2023-03-16T16:23:52.739Z,10.77
2023-03-16T16:26:50.530Z,11.45
2023-03-16T16:29:30.616Z,7.85
2023-03-16T16:31:57.517Z,6.93
2023-03-16T16:34:25.563Z,7.93
2023-03-16T16:36:53.982Z,6.22
2023-03-16T16:39:21.788Z,5.57
2023-03-16T16:41:50.782Z,7.63
2023-03-16T16:44:27.358Z,6.88
2023-03-16T16:46:54.908Z,6.20
2023-03-16T16:49:24.904Z,5.10
2023-03-16T16:51:52.809Z,6.45
2023-03-16T16:54:25.432Z,4.40
2023-03-16T16:56:56.244Z,6.38
2023-03-16T16:59:34.427Z,4.75
2023-03-16T17:02:03.246Z,7.65
2023-03-16T17:04:30.256Z,6.75
2023-03-16T17:07:00.740Z,5.60
2023-03-16T17:09:28.652Z,9.48
2023-03-16T17:11:58.702Z,6.97
2023-03-16T17:14:28.061Z,7.97
2023-03-16T17:16:54.996Z,7.28
2023-03-16T17:19:25.102Z,8.80
2023-03-16T17:21:53.166Z,8.85
2023-03-16T17:24:19.811Z,5.97
2023-03-16T17:26:50.753Z,6.70
2023-03-16T17:29:22.400Z,5.82
2023-03-16T17:31:49.949Z,7.75
2023-03-16T17:34:20.268Z,6.32
2023-03-16T17:36:47.584Z,8.27
2023-03-16T17:39:31.685Z,6.45
2023-03-16T17:42:07.184Z,9.80
2023-03-16T17:44:37.931Z,8.98
2023-03-16T17:47:14.818Z,8.63
2023-03-16T17:49:41.536Z,4.18
2023-03-16T17:52:37.146Z,9.68
2023-03-16T17:55:04.194Z,9.48
2023-03-16T17:57:33.289Z,7.57
2023-03-16T18:00:01.452Z,10.48
2023-03-16T18:02:49.607Z,7.60
2023-03-16T18:05:19.151Z,8.55
2023-03-16T18:07:46.796Z,7.50
2023-03-16T18:10:19.090Z,9.02
2023-03-16T18:12:49.103Z,7.45
2023-03-16T18:15:20.980Z,9.82
2023-03-16T18:17:48.352Z,11.30
2023-03-16T18:20:23.147Z,15.60
2023-03-16T18:22:50.153Z,9.57
2023-03-16T18:25:36.072Z,8.15
2023-03-16T18:28:02.898Z,6.68
2023-03-16T18:30:30.444Z,7.13
2023-03-16T18:32:58.427Z,4.28
2023-03-16T18:35:25.466Z,9.20
2023-03-16T18:37:54.717Z,11.98
2023-03-16T18:40:23.544Z,8.88
2023-03-16T18:42:50.921Z,7.60
2023-03-16T18:45:17.984Z,5.00
2023-03-16T18:47:53.360Z,7.90
2023-03-16T18:50:26.291Z,7.70
2023-03-16T18:52:54.707Z,6.07
2023-03-16T18:55:24.068Z,3.67
2023-03-16T18:57:52.763Z,6.53
2023-03-16T19:00:22.587Z,4.53
2023-03-16T19:02:58.806Z,4.93
2023-03-16T19:05:35.644Z,4.80
2023-03-16T19:08:04.752Z,5.97
2023-03-16T19:10:37.428Z,6.55
2023-03-16T19:13:09.657Z,7.88
2023-03-16T19:15:36.398Z,5.13
2023-03-16T19:18:03.312Z,5.68
2023-03-16T19:20:32.818Z,7.20
2023-03-16T19:23:06.453Z,6.80
2023-03-16T19:25:41.460Z,7.47
2023-03-16T19:28:14.586Z,9.73
2023-03-16T19:30:41.757Z,13.60
2023-03-16T19:33:19.620Z,12.07
2023-03-16T19:35:51.769Z,8.05
2023-03-16T19:38:19.719Z,10.77
2023-03-16T19:40:48.907Z,18.90
2023-03-16T19:43:18.382Z,8.27
2023-03-16T19:45:45.563Z,10.68
2023-03-16T19:48:20.995Z,19.67
2023-03-16T19:50:49.535Z,7.25
2023-03-16T19:53:20.717Z,7.05
2023-03-16T19:55:48.623Z,6.82
2023-03-16T19:58:39.186Z,6.40
2023-03-16T20:01:13.256Z,5.72
2023-03-16T20:03:39.915Z,7.38
2023-03-16T20:06:08.532Z,7.57
2023-03-16T20:08:35.151Z,5.20
2023-03-16T20:11:07.356Z,5.07
2023-03-16T20:13:35.276Z,5.75
2023-03-16T20:16:03.430Z,7.43
2023-03-16T20:18:30.112Z,15.20
2023-03-16T20:20:57.215Z,5.53
2023-03-16T20:23:26.226Z,3.92
2023-03-16T20:26:02.050Z,6.40
2023-03-16T20:28:36.090Z,6.32
2023-03-16T20:31:05.037Z,8.98
2023-03-16T20:33:32.008Z,9.70
2023-03-16T20:35:58.745Z,8.50
2023-03-16T20:38:25.622Z,7.90
2023-03-16T20:40:54.300Z,11.32
2023-03-16T20:43:27.461Z,8.47
2023-03-16T20:45:56.568Z,7.40
2023-03-16T20:48:25.466Z,5.93
2023-03-16T20:50:56.234Z,9.05
2023-03-16T20:53:23.368Z,8.32
2023-03-16T20:55:51.394Z,6.18
2023-03-16T20:58:26.901Z,8.75
2023-03-16T21:00:57.590Z,8.65
2023-03-16T21:03:27.484Z,8.90
2023-03-16T21:05:55.484Z,4.72
2023-03-16T21:08:22.563Z,5.85
2023-03-16T21:10:51.738Z,8.43
2023-03-16T21:13:29.559Z,8.70
2023-03-16T21:15:59.628Z,9.80
2023-03-16T21:18:26.615Z,7.60
2023-03-16T21:20:53.670Z,11.65
2023-03-16T21:23:23.217Z,4.85
2023-03-16T21:25:56.671Z,5.70
2023-03-16T21:28:25.313Z,8.18
2023-03-16T21:30:54.783Z,7.82
2023-03-16T21:33:29.894Z,6.53
2023-03-16T21:35:57.854Z,7.28
2023-03-16T21:38:26.006Z,4.90
2023-03-16T21:40:52.721Z,5.38
2023-03-16T21:43:19.425Z,9.00
2023-03-16T21:45:47.014Z,10.00
2023-03-16T21:48:24.107Z,9.38
2023-03-16T21:50:52.334Z,10.23
2023-03-16T21:53:20.253Z,8.63
2023-03-16T21:55:47.281Z,10.90
2023-03-16T21:58:14.063Z,12.45
2023-03-16T22:00:41.544Z,19.42
2023-03-16T22:03:23.891Z,35.35
2023-03-16T22:05:51.104Z,19.48
2023-03-16T22:08:20.048Z,25.02
2023-03-16T22:10:47.098Z,15.30
2023-03-16T22:13:13.895Z,14.85
2023-03-16T22:15:42.437Z,96.78
2023-03-16T22:18:37.073Z,25.08
2023-03-16T22:21:30.167Z,53.60
2023-03-16T22:23:57.837Z,61.03
2023-03-16T22:26:25.449Z,48.72
2023-03-16T22:28:53.035Z,48.63
2023-03-16T22:31:38.639Z,32.22
2023-03-16T22:34:06.370Z,53.47
2023-03-16T22:36:33.773Z,54.28
2023-03-16T22:39:05.449Z,16.95
2023-03-16T22:41:32.287Z,40.92
2023-03-16T22:43:59.649Z,22.08
2023-03-16T22:46:27.725Z,28.25
2023-03-16T22:48:56.133Z,39.45
2023-03-16T22:51:25.771Z,41.85
2023-03-16T22:56:24.120Z,15.13
2023-03-16T22:58:54.838Z,21.48
2023-03-16T23:01:32.379Z,15.05
2023-03-16T23:03:59.008Z,11.73
2023-03-16T23:06:28.110Z,12.98
2023-03-16T23:08:55.984Z,15.25
2023-03-16T23:11:26.455Z,10.10
2023-03-16T23:13:54.676Z,16.20
2023-03-16T23:16:27.510Z,12.75
2023-03-16T23:18:54.209Z,16.42
2023-03-16T23:21:24.508Z,15.23
2023-03-16T23:24:03.224Z,11.25
2023-03-16T23:26:30.562Z,9.80
2023-03-16T23:28:58.871Z,12.48
2023-03-16T23:31:27.039Z,15.32
2023-03-16T23:33:53.913Z,11.20
2023-03-16T23:36:22.651Z,10.20
2023-03-16T23:38:50.360Z,15.33
2023-03-16T23:41:21.081Z,12.75
2023-03-16T23:43:48.622Z,13.63
2023-03-16T23:46:18.476Z,11.48
2023-03-16T23:48:46.313Z,9.60
2023-03-16T23:51:22.299Z,11.38
2023-03-16T23:53:49.519Z,11.52
2023-03-16T23:56:16.294Z,8.55
2023-03-16T23:58:42.919Z,11.10
